Time;durP1;ratioP1;P1;durP2;ratioP2;P2;SDS_P1;SDS_P2;PMS_P1;PMS_P2;Temp;Humidity;BMP_temperature;BMP_pressure;BME280_temperature;BME280_humidity;BME280_pressure;Samples;Min_cycle;Max_cycle;Signal;HPM_P1;HPM_P2
2023/10/02 00:01:17;;;;;;;3.67;1.63;;;12.40;99.90;;;;;;4194052;28;20086;-63
2023/10/02 00:03:21;;;;;;;4.77;1.87;;;12.40;99.90;;;;;;4194551;28;20074;-58
2023/10/02 00:05:40;;;;;;;8.57;2.00;;;12.40;99.90;;;;;;4193836;28;20066;-62
2023/10/02 00:07:44;;;;;;;5.37;1.80;;;12.40;99.90;;;;;;4194254;28;20535;-59
2023/10/02 00:09:49;;;;;;;5.13;1.90;;;12.50;99.90;;;;;;4192377;28;20036;-63
2023/10/02 00:11:52;;;;;;;5.47;1.73;;;12.50;99.90;;;;;;4193287;28;20447;-63
2023/10/02 00:14:18;;;;;;;10.03;1.80;;;12.50;99.90;;;;;;4193173;28;20451;-60
2023/10/02 00:16:18;;;;;;;6.60;1.73;;;12.50;99.90;;;;;;4194207;28;20557;-62
2023/10/02 00:18:19;;;;;;;8.37;2.13;;;12.50;99.90;;;;;;4192631;28;20086;-61
2023/10/02 00:20:26;;;;;;;4.17;1.47;;;12.50;99.90;;;;;;4193357;28;20113;-62
2023/10/02 00:22:42;;;;;;;4.30;2.17;;;12.50;99.90;;;;;;4192587;28;20121;-61
2023/10/02 00:24:47;;;;;;;4.33;1.50;;;12.50;99.90;;;;;;4192908;28;20429;-59
2023/10/02 00:26:48;;;;;;;8.87;2.00;;;12.50;99.90;;;;;;4174832;28;20045;-64
2023/10/02 00:28:49;;;;;;;5.20;1.70;;;12.50;99.90;;;;;;4193872;28;20032;-62
2023/10/02 00:30:51;;;;;;;5.83;1.60;;;12.50;99.90;;;;;;4193432;28;20470;-62
2023/10/02 00:32:52;;;;;;;5.60;1.87;;;12.50;99.90;;;;;;4193015;28;20439;-63
2023/10/02 00:34:53;;;;;;;5.33;1.30;;;12.50;99.90;;;;;;4193081;28;20546;-61
2023/10/02 00:36:54;;;;;;;3.53;1.97;;;12.50;99.90;;;;;;4193031;28;20044;-60
2023/10/02 00:41:21;;;;;;;4.17;2.00;;;12.60;99.90;;;;;;4193721;28;20029;-62
2023/10/02 00:43:35;;;;;;;5.90;2.00;;;12.60;99.90;;;;;;4193180;28;20126;-63
2023/10/02 00:45:39;;;;;;;4.13;1.50;;;12.60;99.90;;;;;;4192886;28;20082;-59
2023/10/02 00:47:42;;;;;;;4.40;1.73;;;12.50;99.90;;;;;;4174452;28;20413;-61
2023/10/02 00:49:44;;;;;;;5.17;2.00;;;12.50;99.90;;;;;;4191221;28;20054;-62
2023/10/02 00:51:46;;;;;;;8.70;1.80;;;12.50;99.90;;;;;;4192674;28;20040;-59
2023/10/02 00:53:50;;;;;;;9.43;2.03;;;12.60;99.90;;;;;;4191966;28;20154;-60
2023/10/02 00:55:51;;;;;;;6.07;1.50;;;12.70;99.90;;;;;;4194027;28;20029;-60
2023/10/02 00:57:58;;;;;;;4.40;1.77;;;12.60;99.90;;;;;;4192766;28;20113;-62
2023/10/02 00:59:59;;;;;;;5.33;2.13;;;12.60;99.90;;;;;;4194696;28;20033;-63
2023/10/02 01:02:05;;;;;;;8.67;2.53;;;12.60;99.90;;;;;;4191691;28;20048;-60
2023/10/02 01:04:09;;;;;;;4.07;1.10;;;12.60;99.90;;;;;;4193440;28;20044;-61
2023/10/02 01:06:11;;;;;;;3.23;1.67;;;12.70;99.90;;;;;;4192352;28;20098;-58
2023/10/02 01:08:23;;;;;;;4.57;1.57;;;12.70;99.90;;;;;;4193855;28;20036;-60
2023/10/02 01:10:29;;;;;;;8.30;1.77;;;12.70;99.90;;;;;;4196409;28;20814;-62
2023/10/02 01:12:39;;;;;;;7.23;2.00;;;12.70;99.90;;;;;;4197407;28;20044;-62
2023/10/02 01:15:06;;;;;;;4.90;1.38;;;12.60;99.90;;;;;;4194625;28;20087;-61
2023/10/02 01:17:09;;;;;;;6.13;1.60;;;12.60;99.90;;;;;;4197362;28;20107;-62
2023/10/02 01:19:11;;;;;;;7.47;2.20;;;12.60;99.90;;;;;;4195741;28;20040;-60
2023/10/02 01:21:12;;;;;;;4.80;1.70;;;12.60;99.90;;;;;;4196617;28;20040;-60
2023/10/02 01:23:23;;;;;;;4.67;1.80;;;12.50;99.90;;;;;;4196149;28;20145;-59
2023/10/02 01:25:24;;;;;;;8.73;2.25;;;12.50;99.90;;;;;;4195808;28;20052;-60
2023/10/02 01:27:40;;;;;;;5.07;2.07;;;12.50;99.90;;;;;;4196282;28;20071;-60
2023/10/02 01:29:42;;;;;;;7.20;2.07;;;12.50;99.90;;;;;;4196509;28;20094;-61
2023/10/02 01:31:48;;;;;;;8.00;1.80;;;12.40;99.90;;;;;;4196367;28;20362;-60
2023/10/02 01:33:52;;;;;;;7.40;1.77;;;12.40;99.90;;;;;;4196504;28;20033;-59
2023/10/02 01:35:55;;;;;;;4.37;1.60;;;12.40;99.90;;;;;;4195330;28;20078;-60
2023/10/02 01:37:56;;;;;;;4.50;1.50;;;12.30;99.90;;;;;;4196219;28;20496;-60
2023/10/02 01:40:28;;;;;;;6.00;1.63;;;12.30;99.90;;;;;;4196316;28;20346;-60
2023/10/02 01:42:18;;;;;;;6.47;2.10;;;12.20;99.90;;;;;;4195997;28;20024;-61
2023/10/02 01:44:22;;;;;;;2.80;1.33;;;12.20;99.90;;;;;;4195514;28;20048;-60
2023/10/02 01:46:25;;;;;;;5.23;2.07;;;12.20;99.90;;;;;;4194932;28;20048;-61
2023/10/02 01:48:36;;;;;;;2.70;1.67;;;12.20;99.90;;;;;;4196623;28;20013;-62
2023/10/02 01:50:38;;;;;;;7.13;1.87;;;12.20;99.90;;;;;;4195861;28;20028;-60
2023/10/02 01:52:41;;;;;;;7.30;2.00;;;12.20;99.90;;;;;;4194576;28;20074;-62
2023/10/02 01:54:44;;;;;;;7.10;2.00;;;12.20;99.90;;;;;;4193870;28;20032;-59
2023/10/02 01:56:45;;;;;;;4.87;1.70;;;12.20;99.90;;;;;;4193194;28;20111;-60
2023/10/02 01:58:52;;;;;;;8.77;1.77;;;12.20;99.90;;;;;;4195537;28;20032;-58
2023/10/02 02:00:54;;;;;;;4.50;1.80;;;12.20;99.90;;;;;;4195753;28;20053;-61
2023/10/02 02:03:14;;;;;;;5.80;1.83;;;12.20;99.90;;;;;;4194143;28;20460;-62
2023/10/02 02:05:15;;;;;;;7.47;1.57;;;12.20;99.90;;;;;;4195712;28;20045;-59
2023/10/02 02:07:20;;;;;;;10.37;2.43;;;12.20;99.90;;;;;;4194248;28;20089;-63
2023/10/02 02:09:26;;;;;;;9.77;2.00;;;12.20;99.90;;;;;;4195713;28;20058;-63
2023/10/02 02:11:34;;;;;;;5.30;1.73;;;12.20;99.90;;;;;;4195193;28;20240;-59
2023/10/02 02:13:44;;;;;;;7.47;1.50;;;12.20;99.90;;;;;;4195998;28;20025;-59
2023/10/02 02:15:46;;;;;;;6.17;2.00;;;12.20;99.90;;;;;;4195209;28;20093;-62
2023/10/02 02:17:49;;;;;;;6.50;2.40;;;12.20;99.90;;;;;;4195355;28;20044;-62
2023/10/02 02:19:51;;;;;;;6.23;1.97;;;12.20;99.90;;;;;;4194321;28;20017;-61
2023/10/02 02:21:56;;;;;;;3.27;1.57;;;12.20;99.90;;;;;;4195281;28;20099;-63
2023/10/02 02:24:06;;;;;;;7.90;1.97;;;12.20;99.90;;;;;;4195008;28;20063;-61
2023/10/02 02:26:10;;;;;;;4.10;2.00;;;12.20;99.90;;;;;;4196137;28;20506;-65
2023/10/02 02:28:12;;;;;;;5.30;1.80;;;12.10;99.90;;;;;;4194979;28;20106;-63
2023/10/02 02:30:17;;;;;;;6.30;1.73;;;12.20;99.90;;;;;;4195307;28;20048;-64
2023/10/02 02:32:19;;;;;;;6.10;2.07;;;12.20;99.90;;;;;;4195250;28;20078;-63
2023/10/02 02:34:22;;;;;;;3.30;1.70;;;12.20;99.90;;;;;;4195545;28;20032;-63
2023/10/02 02:36:26;;;;;;;7.17;1.87;;;12.20;99.90;;;;;;4195408;28;20098;-61
2023/10/02 02:38:27;;;;;;;7.13;1.50;;;12.10;99.90;;;;;;4194420;28;20558;-60
2023/10/02 02:40:31;;;;;;;6.47;1.80;;;12.20;99.90;;;;;;4195031;28;20036;-63
2023/10/02 02:42:32;;;;;;;3.50;1.43;;;12.10;99.90;;;;;;4194381;28;20477;-61
2023/10/02 02:44:39;;;;;;;6.80;1.70;;;12.10;99.90;;;;;;4194765;28;20396;-62
2023/10/02 02:46:53;;;;;;;5.10;1.33;;;12.10;99.90;;;;;;4194549;28;20098;-62
2023/10/02 02:48:56;;;;;;;4.27;1.80;;;12.10;99.90;;;;;;4195627;28;20028;-62
2023/10/02 02:51:14;;;;;;;4.87;1.57;;;12.10;99.90;;;;;;4194687;28;20319;-62
2023/10/02 02:53:22;;;;;;;4.80;1.87;;;12.10;99.90;;;;;;4195426;28;20016;-63
2023/10/02 02:55:23;;;;;;;4.33;1.27;;;12.10;99.90;;;;;;4194266;28;20036;-62
2023/10/02 02:57:26;;;;;;;4.50;1.60;;;12.10;99.90;;;;;;4195129;28;20044;-63
2023/10/02 02:59:27;;;;;;;5.73;1.90;;;12.10;99.90;;;;;;4191655;28;20048;-64
2023/10/02 03:01:29;;;;;;;9.20;2.00;;;12.00;99.90;;;;;;4193610;28;20082;-61
2023/10/02 03:03:33;;;;;;;5.07;2.13;;;12.10;99.90;;;;;;4194016;28;20033;-64
2023/10/02 03:05:41;;;;;;;14.73;2.97;;;12.10;99.90;;;;;;4195296;28;20032;-62
2023/10/02 03:07:44;;;;;;;8.07;2.20;;;12.10;99.90;;;;;;4177009;28;20098;-62
2023/10/02 03:09:45;;;;;;;6.67;1.90;;;12.10;99.90;;;;;;4179107;28;20041;-63
2023/10/02 03:11:46;;;;;;;5.87;1.97;;;12.00;99.90;;;;;;4177388;28;20053;-63
2023/10/02 03:13:49;;;;;;;10.13;2.13;;;12.00;99.90;;;;;;4191420;28;20534;-65
2023/10/02 03:15:50;;;;;;;4.83;1.70;;;12.00;99.90;;;;;;4193464;28;20098;-63
2023/10/02 03:17:51;;;;;;;8.33;1.83;;;12.00;99.90;;;;;;4194941;28;20422;-62
2023/10/02 03:19:52;;;;;;;6.67;2.00;;;12.00;99.90;;;;;;4193569;28;20044;-58
2023/10/02 03:22:01;;;;;;;3.40;1.40;;;12.00;99.90;;;;;;4193780;28;20029;-60
2023/10/02 03:24:03;;;;;;;6.33;2.43;;;12.10;99.90;;;;;;4194111;28;20032;-63
2023/10/02 03:26:21;;;;;;;6.40;1.40;;;12.00;99.90;;;;;;4194657;28;20033;-63
2023/10/02 03:28:32;;;;;;;4.73;1.47;;;12.10;99.90;;;;;;4194669;28;20154;-63
2023/10/02 03:30:38;;;;;;;5.45;1.60;;;12.10;99.90;;;;;;4194099;28;20451;-63
2023/10/02 03:32:45;;;;;;;4.47;1.90;;;12.10;99.90;;;;;;4193394;28;20086;-63
2023/10/02 03:35:02;;;;;;;5.67;1.97;;;12.10;99.90;;;;;;4193278;28;20463;-61
2023/10/02 03:37:14;;;;;;;6.13;1.30;;;12.10;99.90;;;;;;4194277;28;20475;-61
2023/10/02 03:39:23;;;;;;;8.50;1.83;;;12.00;99.90;;;;;;4194021;28;20040;-62
2023/10/02 03:41:44;;;;;;;5.13;1.42;;;11.90;99.90;;;;;;4192610;28;20152;-61
2023/10/02 03:43:46;;;;;;;4.50;1.20;;;11.90;99.90;;;;;;4193482;28;20090;-63
2023/10/02 03:45:51;;;;;;;7.73;1.80;;;11.90;99.90;;;;;;4192477;28;20045;-61
2023/10/02 03:48:02;;;;;;;5.10;1.47;;;11.80;99.90;;;;;;4194135;28;20036;-62
2023/10/02 03:50:10;;;;;;;5.37;1.50;;;11.70;99.90;;;;;;4193926;28;20024;-61
2023/10/02 03:52:19;;;;;;;6.03;1.90;;;11.70;99.90;;;;;;4194207;28;20028;-60
2023/10/02 03:54:21;;;;;;;4.97;1.77;;;11.60;99.90;;;;;;4193493;28;20040;-60
2023/10/02 03:56:36;;;;;;;5.80;1.30;;;11.60;99.90;;;;;;4193252;28;20097;-61
2023/10/02 03:58:38;;;;;;;7.23;1.80;;;11.50;99.90;;;;;;4192362;28;20056;-62
2023/10/02 04:00:50;;;;;;;5.90;1.77;;;11.50;99.90;;;;;;4193410;28;20036;-63
2023/10/02 04:13:31;;;;;;;3.50;1.67;;;11.50;99.90;;;;;;4223674;27;20416;-60
2023/10/02 04:15:33;;;;;;;4.37;1.90;;;11.40;99.90;;;;;;4222201;28;20077;-62
2023/10/02 04:17:34;;;;;;;4.27;2.10;;;11.30;99.90;;;;;;4225018;28;20032;-62
2023/10/02 04:19:52;;;;;;;6.07;2.07;;;11.30;99.90;;;;;;4223115;28;20545;-63
2023/10/02 04:21:56;;;;;;;4.73;2.17;;;11.30;99.90;;;;;;4222104;28;20048;-62
2023/10/02 04:23:58;;;;;;;9.90;2.37;;;11.20;99.90;;;;;;4222834;27;20089;-62
2023/10/02 04:25:59;;;;;;;6.10;2.07;;;11.20;99.90;;;;;;4225463;28;20093;-62
2023/10/02 04:28:00;;;;;;;4.97;1.97;;;11.20;99.90;;;;;;4223791;28;20040;-60
2023/10/02 04:32:19;;;;;;;6.63;1.73;;;11.10;99.90;;;;;;4223861;28;20434;-63
2023/10/02 04:36:34;;;;;;;6.80;1.90;;;11.10;99.90;;;;;;4223724;28;20475;-61
2023/10/02 04:38:49;;;;;;;7.67;2.70;;;11.10;99.90;;;;;;4223459;27;20036;-59
2023/10/02 04:40:51;;;;;;;7.97;2.50;;;11.10;99.90;;;;;;4222827;28;20012;-63
2023/10/02 04:42:58;;;;;;;9.80;2.00;;;11.10;99.90;;;;;;4222666;28;20081;-62
2023/10/02 04:45:17;;;;;;;10.70;2.27;;;11.10;99.90;;;;;;4206576;28;20578;-62
2023/10/02 04:47:21;;;;;;;5.80;2.03;;;11.10;99.90;;;;;;4215668;28;20085;-62
2023/10/02 04:49:22;;;;;;;9.17;2.17;;;11.20;99.90;;;;;;4223797;28;20789;-59
2023/10/02 04:51:23;;;;;;;6.20;1.70;;;11.20;99.90;;;;;;4224599;28;20031;-64
2023/10/02 04:53:24;;;;;;;7.90;1.93;;;11.40;99.90;;;;;;4222861;28;20019;-58
2023/10/02 04:55:41;;;;;;;7.10;2.33;;;11.60;99.90;;;;;;4224248;28;20024;-62
2023/10/02 04:57:42;;;;;;;6.33;2.07;;;11.80;99.90;;;;;;4223306;28;20053;-60
2023/10/02 04:59:54;;;;;;;5.70;1.90;;;12.10;99.90;;;;;;4224942;28;20028;-60
2023/10/02 05:02:17;;;;;;;4.17;1.80;;;12.30;99.90;;;;;;4223430;28;20039;-61
2023/10/02 05:04:18;;;;;;;6.13;2.27;;;12.50;99.90;;;;;;4224346;28;20035;-61
2023/10/02 05:11:46;;;;;;;6.47;2.00;;;13.10;99.90;;;;;;4222777;28;20057;-62
2023/10/02 05:13:45;;;;;;;4.80;1.63;;;13.30;99.90;;;;;;4214673;28;20052;-62
2023/10/02 05:16:06;;;;;;;4.77;2.00;;;13.70;99.90;;;;;;4211675;28;20039;-61
2023/10/02 05:18:03;;;;;;;9.88;2.03;;;14.00;99.90;;;;;;4212673;28;20085;-60
2023/10/02 05:20:07;;;;;;;6.05;1.98;;;14.20;99.90;;;;;;4211731;28;20458;-62
2023/10/02 05:22:08;;;;;;;7.18;1.80;;;14.20;99.90;;;;;;4212871;28;20052;-63
2023/10/02 05:24:13;;;;;;;5.63;1.95;;;14.10;99.90;;;;;;4211323;28;20581;-61
2023/10/02 05:26:29;;;;;;;6.03;1.90;;;14.20;99.90;;;;;;4212994;28;20094;-62
2023/10/02 05:28:52;;;;;;;7.60;2.08;;;14.20;99.90;;;;;;4211691;28;20032;-61
2023/10/02 05:30:52;;;;;;;5.50;2.10;;;14.40;99.90;;;;;;4212481;28;20044;-63
2023/10/02 05:32:56;;;;;;;5.90;1.85;;;14.60;99.90;;;;;;4211598;28;20533;-61
2023/10/02 05:34:58;;;;;;;5.30;2.15;;;14.90;99.90;;;;;;4212598;28;20066;-63
2023/10/02 05:41:38;;;;;;;6.95;2.42;;;16.20;99.90;;;;;;4211467;28;20346;-61
2023/10/02 05:43:55;;;;;;;6.50;1.85;;;16.40;99.90;;;;;;4212523;28;20069;-62
2023/10/02 05:45:56;;;;;;;8.52;1.90;;;16.70;99.90;;;;;;4210970;28;20078;-60
2023/10/02 05:47:58;;;;;;;4.38;1.77;;;16.80;99.90;;;;;;4212369;28;20077;-61
2023/10/02 05:50:00;;;;;;;5.57;2.40;;;16.90;99.90;;;;;;4211483;28;20036;-59
2023/10/02 05:52:02;;;;;;;5.53;1.55;;;17.40;99.90;;;;;;4212141;28;20121;-57
2023/10/02 05:54:05;;;;;;;11.00;3.55;;;17.40;99.90;;;;;;4210854;28;20016;-60
2023/10/02 05:56:12;;;;;;;7.75;1.55;;;17.20;99.90;;;;;;4212208;28;20109;-61
2023/10/02 05:58:20;;;;;;;3.90;1.52;;;17.20;99.90;;;;;;4211078;28;20044;-60
2023/10/02 06:00:21;;;;;;;8.43;1.75;;;17.20;99.90;;;;;;4211881;28;20031;-61
2023/10/02 06:02:23;;;;;;;5.78;1.50;;;17.10;99.90;;;;;;4209364;28;20117;-61
2023/10/02 06:04:30;;;;;;;6.90;2.08;;;16.90;99.90;;;;;;4211325;28;20073;-62
2023/10/02 06:06:38;;;;;;;6.15;1.98;;;17.20;99.90;;;;;;4211469;28;20570;-61
2023/10/02 06:08:41;;;;;;;5.85;1.75;;;17.70;99.90;;;;;;4211280;28;20712;-61
2023/10/02 06:10:44;;;;;;;4.05;1.52;;;18.10;99.90;;;;;;4211354;28;20069;-61
2023/10/02 06:12:47;;;;;;;5.60;1.52;;;18.00;99.90;;;;;;4210874;28;20039;-62
2023/10/02 06:14:49;;;;;;;4.53;1.98;;;17.70;99.90;;;;;;4211523;28;20028;-59
2023/10/02 06:16:52;;;;;;;5.65;1.73;;;17.60;99.90;;;;;;4210841;28;20033;-60
2023/10/02 06:19:02;;;;;;;7.80;1.90;;;17.50;99.90;;;;;;4211685;28;20081;-62
2023/10/02 06:21:03;;;;;;;3.05;1.40;;;17.60;99.90;;;;;;4210777;28;20497;-59
2023/10/02 06:23:19;;;;;;;6.35;1.65;;;17.60;99.90;;;;;;4211875;28;20044;-61
2023/10/02 06:25:21;;;;;;;4.50;1.73;;;17.80;99.90;;;;;;4209967;28;20036;-62
2023/10/02 06:27:24;;;;;;;5.47;2.00;;;17.60;99.90;;;;;;4211646;28;20032;-61
2023/10/02 06:29:33;;;;;;;4.57;1.83;;;17.60;99.90;;;;;;4210659;28;20020;-61
2023/10/02 06:31:41;;;;;;;4.65;1.60;;;17.50;99.90;;;;;;4211733;28;20376;-62
2023/10/02 06:33:44;;;;;;;6.13;1.50;;;17.30;99.90;;;;;;4210596;28;20509;-60
2023/10/02 06:35:45;;;;;;;5.30;1.50;;;17.20;99.90;;;;;;4211841;28;20100;-61
2023/10/02 06:37:47;;;;;;;3.75;1.92;;;17.30;99.90;;;;;;4210574;28;20476;-59
2023/10/02 06:40:04;;;;;;;6.35;1.45;;;17.20;99.90;;;;;;4211462;28;20082;-59
2023/10/02 06:42:09;;;;;;;5.88;1.48;;;17.40;99.90;;;;;;4210079;28;20048;-61
2023/10/02 06:44:16;;;;;;;6.45;1.80;;;17.50;99.90;;;;;;4211267;28;20488;-60
2023/10/02 06:46:19;;;;;;;5.00;1.85;;;18.00;99.90;;;;;;4208881;28;20494;-62
2023/10/02 06:48:20;;;;;;;4.57;1.83;;;18.00;99.90;;;;;;4211131;28;20093;-60
2023/10/02 06:50:27;;;;;;;6.70;1.75;;;18.00;99.90;;;;;;4210268;28;20105;-61
2023/10/02 06:52:32;;;;;;;3.83;1.58;;;18.40;99.90;;;;;;4211082;28;20097;-62
2023/10/02 06:54:42;;;;;;;8.90;1.85;;;18.40;99.90;;;;;;4210034;28;20173;-61
2023/10/02 06:56:46;;;;;;;4.97;2.00;;;18.80;99.90;;;;;;4211488;28;20045;-61
2023/10/02 06:58:53;;;;;;;4.88;1.63;;;18.80;99.90;;;;;;4210108;28;20112;-62
2023/10/02 07:00:55;;;;;;;6.80;1.98;;;18.70;99.90;;;;;;4211336;28;20040;-61
2023/10/02 07:03:03;;;;;;;5.40;1.30;;;18.50;99.90;;;;;;4210570;28;20097;-62
2023/10/02 07:05:10;;;;;;;6.97;1.52;;;18.70;99.90;;;;;;4211181;28;20048;-61
2023/10/02 07:07:12;;;;;;;9.63;2.35;;;19.00;99.90;;;;;;4209831;28;20072;-63
2023/10/02 07:09:14;;;;;;;7.85;1.92;;;19.10;99.90;;;;;;4210729;28;20074;-61
2023/10/02 07:11:18;;;;;;;5.65;1.88;;;18.90;99.90;;;;;;4210372;28;20130;-61
2023/10/02 07:13:20;;;;;;;8.80;1.65;;;18.70;99.90;;;;;;4210482;28;20143;-61
2023/10/02 07:15:22;;;;;;;5.00;1.60;;;18.60;99.90;;;;;;4210833;28;20040;-61
2023/10/02 07:17:23;;;;;;;5.25;2.47;;;18.70;99.90;;;;;;4210168;28;20040;-63
2023/10/02 07:19:38;;;;;;;6.75;2.03;;;19.10;99.90;;;;;;4210875;28;20070;-61
2023/10/02 07:21:40;;;;;;;4.53;1.70;;;19.10;99.90;;;;;;4209658;28;20036;-61
2023/10/02 07:23:43;;;;;;;3.63;1.15;;;19.20;99.90;;;;;;4210762;28;20103;-63
2023/10/02 07:25:50;;;;;;;6.38;1.55;;;18.90;99.90;;;;;;4209977;28;20040;-62
2023/10/02 07:27:52;;;;;;;5.88;1.50;;;19.00;99.90;;;;;;4210363;28;20077;-61
2023/10/02 07:30:01;;;;;;;2.70;1.30;;;19.30;99.90;;;;;;4209457;28;20479;-62
2023/10/02 07:32:03;;;;;;;6.40;1.23;;;19.80;99.50;;;;;;4210419;28;20044;-61
2023/10/02 07:34:07;;;;;;;4.75;1.17;;;20.30;99.00;;;;;;4209110;28;20069;-62
2023/10/02 07:36:14;;;;;;;5.78;1.55;;;20.30;98.70;;;;;;4210279;28;20105;-62
2023/10/02 07:38:18;;;;;;;4.88;1.63;;;20.30;98.50;;;;;;4209594;28;20036;-62
2023/10/02 07:40:19;;;;;;;5.78;1.20;;;20.10;98.70;;;;;;4210607;28;20049;-60
2023/10/02 07:42:21;;;;;;;5.85;2.00;;;20.20;98.70;;;;;;4209002;28;20407;-61
2023/10/02 07:44:22;;;;;;;6.40;1.90;;;20.10;98.50;;;;;;4210422;28;20093;-60
2023/10/02 07:46:23;;;;;;;5.85;1.90;;;19.90;98.60;;;;;;4209416;28;20508;-62
2023/10/02 07:48:25;;;;;;;5.00;1.30;;;19.80;98.70;;;;;;4210337;28;20028;-63
2023/10/02 07:50:33;;;;;;;8.57;1.95;;;19.80;98.90;;;;;;4209535;28;20109;-60
2023/10/02 07:52:38;;;;;;;6.60;1.80;;;19.80;98.80;;;;;;4210515;28;20065;-60
2023/10/02 07:54:45;;;;;;;9.65;1.40;;;20.00;98.90;;;;;;4209381;28;20478;-61
2023/10/02 07:56:47;;;;;;;6.68;1.75;;;20.30;98.50;;;;;;4209906;28;20040;-62
2023/10/02 07:58:55;;;;;;;4.90;1.40;;;20.60;98.20;;;;;;4209835;28;20634;-60
2023/10/02 08:00:56;;;;;;;4.00;1.13;;;20.60;98.10;;;;;;4209912;28;20039;-59
2023/10/02 08:03:02;;;;;;;5.28;1.83;;;20.30;98.30;;;;;;4210137;28;20040;-63
2023/10/02 08:05:04;;;;;;;5.97;1.50;;;20.30;98.40;;;;;;4210021;28;20492;-62
2023/10/02 08:07:07;;;;;;;7.47;2.25;;;20.20;98.60;;;;;;4210446;28;20070;-61
2023/10/02 08:09:35;;;;;;;3.85;1.38;;;20.20;98.50;;;;;;4209587;28;20131;-60
2023/10/02 08:11:38;;;;;;;3.60;1.33;;;20.40;98.40;;;;;;4210253;28;20065;-62
2023/10/02 08:13:48;;;;;;;8.30;1.77;;;21.00;98.00;;;;;;4209044;28;20105;-58
2023/10/02 08:15:50;;;;;;;10.15;4.93;;;21.40;97.70;;;;;;4210365;28;20036;-62
2023/10/02 08:19:56;;;;;;;8.63;2.70;;;21.30;97.20;;;;;;4210484;28;20492;-61
2023/10/02 08:21:57;;;;;;;4.43;1.50;;;21.20;97.40;;;;;;4209507;28;20036;-62
2023/10/02 08:24:00;;;;;;;7.30;2.50;;;21.30;97.50;;;;;;4210091;28;20036;-62
2023/10/02 08:26:02;;;;;;;5.63;1.85;;;21.20;97.40;;;;;;4209195;28;20089;-61
2023/10/02 08:28:06;;;;;;;3.42;1.90;;;21.20;97.30;;;;;;4210181;28;20086;-59
2023/10/02 08:32:30;;;;;;;;;;;20.90;97.60;;;;;;4211293;28;20032;-63
2023/10/02 08:34:31;;;;;;;7.35;1.90;;;20.90;97.20;;;;;;4209036;28;19904;-60
2023/10/02 08:36:33;;;;;;;3.90;1.20;;;20.80;97.70;;;;;;4210076;28;20747;-60
2023/10/02 08:38:34;;;;;;;3.83;1.77;;;20.60;97.80;;;;;;4208684;28;20457;-61
2023/10/02 08:40:40;;;;;;;4.90;1.92;;;20.30;97.90;;;;;;4209787;28;20491;-62
2023/10/02 08:42:46;;;;;;;4.35;1.63;;;20.50;98.00;;;;;;4208858;28;20090;-61
2023/10/02 08:44:49;;;;;;;6.32;1.35;;;20.70;98.00;;;;;;4210213;28;20172;-60
2023/10/02 08:46:51;;;;;;;10.57;2.08;;;20.90;97.80;;;;;;4208735;28;20024;-62
2023/10/02 08:48:55;;;;;;;3.78;1.75;;;21.20;97.70;;;;;;4211001;28;20097;-61
2023/10/02 08:50:57;;;;;;;4.13;1.88;;;21.60;97.40;;;;;;4211034;28;20040;-61
2023/10/02 08:53:04;;;;;;;4.60;2.42;;;21.70;97.00;;;;;;4212329;28;20051;-60
2023/10/02 08:55:35;;;;;;;4.47;1.63;;;21.60;96.90;;;;;;4212363;28;20032;-61
2023/10/02 08:57:50;;;;;;;6.53;1.90;;;21.60;96.30;;;;;;4212730;28;20036;-62
2023/10/02 09:00:09;;;;;;;4.45;1.70;;;21.50;96.60;;;;;;4211926;28;20426;-61
2023/10/02 09:02:14;;;;;;;6.60;1.80;;;21.20;96.10;;;;;;4212779;28;20078;-58
2023/10/02 09:04:28;;;;;;;8.52;2.03;;;20.90;97.10;;;;;;4211730;28;20357;-57
2023/10/02 09:06:41;;;;;;;3.33;1.45;;;21.20;96.90;;;;;;4213004;28;20066;-60
2023/10/02 09:09:15;;;;;;;4.85;1.70;;;21.50;96.70;;;;;;4211806;28;20385;-60
2023/10/02 09:11:06;;;;;;;5.53;2.17;;;21.20;96.60;;;;;;4212627;28;20035;-61
2023/10/02 09:13:20;;;;;;;9.68;2.30;;;20.90;96.80;;;;;;4211149;28;20032;-60
2023/10/02 09:15:30;;;;;;;5.85;1.45;;;20.40;97.10;;;;;;4212883;28;20699;-61
2023/10/02 09:17:44;;;;;;;4.40;1.55;;;20.00;97.40;;;;;;4211617;28;20597;-61
2023/10/02 09:19:49;;;;;;;5.00;1.55;;;19.90;97.80;;;;;;4212572;28;20024;-61
2023/10/02 09:21:53;;;;;;;4.78;1.80;;;19.80;97.70;;;;;;4211450;28;20020;-60
2023/10/02 09:24:00;;;;;;;5.72;1.98;;;19.30;98.10;;;;;;4211283;28;20566;-62
2023/10/02 09:26:16;;;;;;;5.15;1.85;;;18.90;98.40;;;;;;4211401;28;20074;-59
2023/10/02 09:28:40;;;;;;;4.28;2.03;;;18.70;98.80;;;;;;4212286;28;20050;-58
2023/10/02 09:30:41;;;;;;;7.15;2.35;;;18.50;99.20;;;;;;4211186;28;20333;-62
2023/10/02 09:32:47;;;;;;;4.55;2.22;;;18.30;99.20;;;;;;4212679;28;20036;-60
2023/10/02 09:35:10;;;;;;;3.97;1.70;;;18.20;99.40;;;;;;4211244;28;20023;-60
2023/10/02 09:37:12;;;;;;;3.58;1.90;;;18.20;99.50;;;;;;4212718;28;20568;-61
2023/10/02 09:39:32;;;;;;;6.65;2.10;;;18.80;99.10;;;;;;4210992;28;20117;-59
2023/10/02 09:41:33;;;;;;;;;;;19.20;98.70;;;;;;4212759;28;20078;-60
2023/10/02 09:43:37;;;;;;;3.88;1.65;;;19.60;98.10;;;;;;4211062;28;20357;-60
2023/10/02 09:45:46;;;;;;;5.95;2.10;;;19.80;98.20;;;;;;4212332;28;20044;-60
2023/10/02 09:47:47;;;;;;;3.70;1.92;;;19.70;98.20;;;;;;4211202;28;20050;-61
2023/10/02 09:50:10;;;;;;;5.78;1.90;;;19.60;98.30;;;;;;4212784;28;20534;-61
2023/10/02 09:52:16;;;;;;;4.15;1.75;;;19.50;98.20;;;;;;4211032;28;20081;-59
2023/10/02 09:54:32;;;;;;;3.80;1.70;;;19.30;98.50;;;;;;4211937;28;20036;-61
2023/10/02 09:57:04;;;;;;;4.22;1.63;;;19.30;98.30;;;;;;4211054;28;20093;-62
2023/10/02 09:59:19;;;;;;;3.15;2.17;;;19.60;98.00;;;;;;4193435;28;20074;-61
2023/10/02 10:03:31;;;;;;;5.85;2.05;;;20.30;97.90;;;;;;4212018;28;20097;-60
2023/10/02 10:05:48;;;;;;;7.80;2.30;;;20.60;97.60;;;;;;4210736;28;20113;-61
2023/10/02 10:07:52;;;;;;;6.30;2.03;;;20.80;97.40;;;;;;4211918;28;20085;-62
2023/10/02 10:10:27;;;;;;;5.80;1.88;;;20.60;97.20;;;;;;4210729;28;20058;-63
2023/10/02 10:12:54;;;;;;;4.07;1.30;;;20.50;96.70;;;;;;4211595;28;20107;-61
2023/10/02 10:15:25;;;;;;;3.78;1.27;;;20.40;97.20;;;;;;4210938;28;20419;-63
2023/10/02 10:17:41;;;;;;;4.28;2.00;;;20.30;97.30;;;;;;4211131;28;20020;-62
2023/10/02 10:19:53;;;;;;;4.50;1.58;;;20.20;97.30;;;;;;4211483;28;20480;-63
2023/10/02 10:21:57;;;;;;;7.22;2.30;;;20.10;97.40;;;;;;4210573;28;20008;-62
2023/10/02 10:24:36;;;;;;;3.30;1.65;;;20.10;97.60;;;;;;4210721;28;20097;-62
2023/10/02 10:26:40;;;;;;;2.30;1.13;;;19.70;96.50;;;;;;4209982;28;20488;-63
2023/10/02 10:28:51;;;;;;;5.47;2.03;;;19.50;97.30;;;;;;4211239;28;20425;-62
2023/10/02 10:30:56;;;;;;;5.50;2.03;;;19.50;97.30;;;;;;4210429;28;20144;-62
2023/10/02 10:35:29;;;;;;;4.63;1.85;;;19.70;97.30;;;;;;4210394;28;20040;-63
2023/10/02 10:37:40;;;;;;;;;;;19.90;97.20;;;;;;4211686;28;20059;-61
2023/10/02 10:39:55;;;;;;;6.70;1.45;;;20.00;96.50;;;;;;4210627;28;19965;-61
2023/10/02 10:42:03;;;;;;;5.43;1.52;;;20.00;96.50;;;;;;4211390;28;20101;-62
2023/10/02 10:44:12;;;;;;;5.88;1.70;;;20.10;96.30;;;;;;4210698;28;20056;-61
2023/10/02 10:46:16;;;;;;;2.70;1.77;;;20.30;96.10;;;;;;4211428;28;20024;-59
2023/10/02 10:48:22;;;;;;;2.30;1.27;;;20.30;96.20;;;;;;4210278;28;20062;-62
2023/10/02 10:50:30;;;;;;;4.20;1.70;;;20.30;96.30;;;;;;4211598;28;20542;-61
2023/10/02 10:52:38;;;;;;;3.42;1.80;;;20.30;96.20;;;;;;4210489;28;20105;-61
2023/10/02 10:54:41;;;;;;;4.25;1.48;;;20.30;96.30;;;;;;4211286;28;20032;-62
2023/10/02 10:56:46;;;;;;;5.38;1.83;;;20.30;96.00;;;;;;4210017;28;20081;-61
2023/10/02 10:58:51;;;;;;;1.80;1.33;;;19.90;95.40;;;;;;4211233;28;20036;-63
2023/10/02 11:00:52;;;;;;;4.68;1.95;;;19.90;95.80;;;;;;4210686;28;20028;-61
2023/10/02 11:03:08;;;;;;;2.35;1.48;;;20.00;95.80;;;;;;4210643;28;20081;-63
2023/10/02 11:05:09;;;;;;;6.60;1.88;;;20.20;95.00;;;;;;4210250;28;20032;-61
2023/10/02 11:07:21;;;;;;;10.63;2.08;;;20.20;95.40;;;;;;4210629;28;20086;-63
2023/10/02 11:09:23;;;;;;;5.93;2.47;;;20.20;95.50;;;;;;4210132;28;20024;-62
2023/10/02 11:11:26;;;;;;;5.43;1.70;;;20.20;95.50;;;;;;4209965;28;20437;-62
2023/10/02 11:13:50;;;;;;;4.72;1.40;;;20.20;95.50;;;;;;4210143;28;20051;-60
2023/10/02 11:15:59;;;;;;;4.93;1.83;;;20.10;94.90;;;;;;4210683;28;20048;-61
2023/10/02 11:18:19;;;;;;;6.32;2.42;;;20.00;94.40;;;;;;4210020;28;20403;-61
2023/10/02 11:20:30;;;;;;;;;;;19.90;94.90;;;;;;4210938;28;20506;-61
2023/10/02 11:22:49;;;;;;;4.70;2.33;;;19.80;94.90;;;;;;4210006;28;19912;-61
2023/10/02 11:24:53;;;;;;;7.50;1.92;;;19.80;95.30;;;;;;4210511;28;20484;-62
2023/10/02 11:27:07;;;;;;;5.78;2.28;;;19.90;95.50;;;;;;4209819;28;20066;-62
2023/10/02 11:29:20;;;;;;;5.82;1.92;;;19.90;95.60;;;;;;4210802;28;20033;-63
2023/10/02 11:31:36;;;;;;;12.82;1.80;;;20.10;95.40;;;;;;4209317;28;20039;-61
2023/10/02 11:33:40;;;;;;;5.30;1.70;;;20.00;95.40;;;;;;4210672;28;20181;-58
2023/10/02 11:35:43;;;;;;;3.78;1.88;;;19.90;94.40;;;;;;4209314;28;20550;-60
2023/10/02 11:37:46;;;;;;;4.13;1.30;;;19.60;94.90;;;;;;4210201;28;20553;-62